Time;durP1;ratioP1;P1;durP2;ratioP2;P2;SDS_P1;SDS_P2;PMS_P1;PMS_P2;Temp;Humidity;BMP_temperature;BMP_pressure;BME280_temperature;BME280_humidity;BME280_pressure;Samples;Min_cycle;Max_cycle;Signal;HPM_P1;HPM_P2
2023/02/04 00:01:22;;;;;;;21.40;5.57;;;8.30;99.90;;;;;;4927765;29;20206;-77
2023/02/04 00:03:49;;;;;;;25.40;5.83;;;8.30;99.90;;;;;;4926333;29;20216;-78
2023/02/04 00:06:15;;;;;;;35.13;6.37;;;8.30;99.90;;;;;;4926748;29;20273;-79
2023/02/04 00:08:42;;;;;;;29.70;5.73;;;8.20;99.90;;;;;;4926619;29;20823;-78
2023/02/04 00:11:09;;;;;;;27.13;5.17;;;8.20;99.90;;;;;;4926339;29;20313;-80
2023/02/04 00:13:37;;;;;;;24.70;5.50;;;8.20;99.90;;;;;;4927271;29;20744;-78
2023/02/04 00:16:05;;;;;;;26.13;5.10;;;8.20;99.90;;;;;;4927245;29;20265;-78
2023/02/04 00:18:32;;;;;;;25.00;6.27;;;8.20;99.90;;;;;;4926089;29;20902;-78
2023/02/04 00:20:59;;;;;;;28.23;5.90;;;8.10;99.90;;;;;;4926723;29;20217;-79
2023/02/04 00:23:26;;;;;;;30.07;6.33;;;8.00;99.90;;;;;;4925866;29;20210;-80
2023/02/04 00:25:53;;;;;;;16.40;4.23;;;8.00;99.90;;;;;;4926898;28;20217;-79
2023/02/04 00:28:20;;;;;;;26.17;5.13;;;8.00;99.90;;;;;;4926507;29;20648;-78
2023/02/04 00:30:48;;;;;;;28.53;6.33;;;7.90;99.90;;;;;;4925920;29;20224;-78
2023/02/04 00:33:15;;;;;;;40.40;7.07;;;7.90;99.90;;;;;;4926360;29;20218;-80
2023/02/04 00:35:42;;;;;;;24.57;5.27;;;7.90;99.90;;;;;;4926119;29;20230;-78
2023/02/04 00:38:09;;;;;;;24.10;5.03;;;7.80;99.90;;;;;;4925962;29;20206;-78
2023/02/04 00:40:36;;;;;;;21.97;4.87;;;7.80;99.90;;;;;;4926105;29;20213;-78
2023/02/04 00:43:03;;;;;;;23.10;4.47;;;7.80;99.90;;;;;;4926655;29;20235;-78
2023/02/04 00:45:30;;;;;;;20.50;4.10;;;7.80;99.90;;;;;;4924939;29;20214;-78
2023/02/04 00:47:58;;;;;;;23.17;5.60;;;7.70;99.90;;;;;;4925191;28;20214;-79
2023/02/04 00:50:25;;;;;;;23.43;4.97;;;7.70;99.90;;;;;;4926116;29;20234;-79
2023/02/04 00:52:52;;;;;;;32.03;6.00;;;7.70;99.90;;;;;;4925357;29;20224;-79
2023/02/04 00:55:19;;;;;;;22.17;5.20;;;7.70;99.90;;;;;;4926205;29;20212;-79
2023/02/04 00:57:46;;;;;;;30.57;5.33;;;7.60;99.90;;;;;;4925967;29;20242;-79
2023/02/04 01:00:14;;;;;;;26.73;5.10;;;7.70;99.90;;;;;;4925217;29;20202;-78
2023/02/04 01:02:41;;;;;;;27.53;5.50;;;7.60;99.90;;;;;;4925939;29;20309;-79
2023/02/04 01:05:10;;;;;;;22.20;5.73;;;7.60;99.90;;;;;;4925902;29;20220;-79
2023/02/04 01:07:37;;;;;;;20.90;5.07;;;7.60;99.90;;;;;;4944162;29;20220;-80
2023/02/04 01:10:04;;;;;;;17.67;4.97;;;7.60;99.90;;;;;;4945219;29;20239;-80
2023/02/04 01:12:31;;;;;;;20.57;5.07;;;7.50;99.90;;;;;;4936222;29;20209;-78
2023/02/04 01:14:59;;;;;;;23.80;5.30;;;7.50;99.90;;;;;;4926126;29;20212;-79
2023/02/04 01:17:26;;;;;;;27.17;5.33;;;7.50;99.90;;;;;;4925188;28;20230;-79
2023/02/04 01:19:53;;;;;;;18.83;4.10;;;7.50;99.90;;;;;;4924980;29;20220;-77
2023/02/04 01:22:21;;;;;;;24.47;5.03;;;7.40;99.90;;;;;;4926085;29;20208;-77
2023/02/04 01:24:49;;;;;;;25.13;4.60;;;7.40;99.90;;;;;;4925723;29;20252;-79
2023/02/04 01:27:16;;;;;;;22.93;4.23;;;7.30;99.90;;;;;;4924724;29;20222;-79
2023/02/04 01:29:43;;;;;;;23.73;4.90;;;7.30;99.90;;;;;;4925121;29;20218;-79
2023/02/04 01:32:10;;;;;;;28.63;5.43;;;7.30;99.90;;;;;;4925274;29;20682;-79
2023/02/04 01:34:37;;;;;;;26.73;5.63;;;7.40;99.90;;;;;;4924464;29;20202;-79
2023/02/04 01:37:04;;;;;;;28.03;5.80;;;7.40;99.90;;;;;;4925461;29;20205;-79
2023/02/04 01:39:32;;;;;;;28.37;6.00;;;7.40;99.90;;;;;;4930202;29;20205;-79
2023/02/04 01:42:00;;;;;;;14.00;3.97;;;7.40;99.90;;;;;;4944504;29;20300;-80
2023/02/04 01:44:28;;;;;;;19.97;4.40;;;7.40;99.90;;;;;;4944894;29;20220;-79
2023/02/04 01:46:55;;;;;;;24.60;4.87;;;7.30;99.90;;;;;;4934671;28;20216;-78
2023/02/04 01:49:22;;;;;;;22.93;4.97;;;7.30;99.90;;;;;;4925208;29;20225;-79
2023/02/04 01:51:50;;;;;;;27.00;5.00;;;7.30;99.90;;;;;;4925634;29;20876;-76
2023/02/04 01:54:17;;;;;;;26.57;5.10;;;7.30;99.90;;;;;;4925965;29;20209;-79
2023/02/04 01:56:48;;;;;;;20.53;5.10;;;7.30;99.90;;;;;;4925005;28;20565;-79
2023/02/04 01:59:17;;;;;;;19.77;4.93;;;7.40;99.90;;;;;;4927921;29;20209;-78
2023/02/04 02:01:46;;;;;;;27.43;5.10;;;7.40;99.90;;;;;;4928532;29;20201;-79
2023/02/04 02:04:16;;;;;;;26.60;4.73;;;7.40;99.90;;;;;;4928710;29;20555;-78
2023/02/04 02:06:47;;;;;;;22.97;4.60;;;7.50;99.90;;;;;;4929429;29;20206;-78
2023/02/04 02:09:14;;;;;;;30.53;5.00;;;7.60;99.90;;;;;;4927949;29;20230;-78
2023/02/04 02:11:41;;;;;;;28.00;5.27;;;7.60;99.90;;;;;;4929360;29;20900;-79
2023/02/04 02:14:10;;;;;;;22.37;4.63;;;7.60;99.90;;;;;;4929559;29;20966;-79
2023/02/04 02:16:37;;;;;;;29.37;5.87;;;7.60;99.90;;;;;;4928168;29;20268;-80
2023/02/04 02:19:05;;;;;;;24.80;4.70;;;7.50;99.90;;;;;;4929403;29;20941;-79
2023/02/04 02:21:37;;;;;;;29.27;5.17;;;7.50;99.90;;;;;;4946234;29;20691;-79
2023/02/04 02:24:27;;;;;;;17.30;4.17;;;7.60;99.90;;;;;;4947744;28;20252;-78
2023/02/04 02:26:55;;;;;;;19.90;5.07;;;7.60;99.90;;;;;;4935232;29;20216;-79
2023/02/04 02:29:23;;;;;;;21.57;4.10;;;7.60;99.90;;;;;;4928651;29;20539;-78
2023/02/04 02:31:50;;;;;;;25.00;4.33;;;7.60;99.90;;;;;;4950441;23;20279;-79
2023/02/04 02:34:18;;;;;;;28.83;5.03;;;7.70;99.90;;;;;;4948137;29;21029;-79
2023/02/04 02:36:44;;;;;;;29.33;5.50;;;7.70;99.90;;;;;;4935879;28;20210;-79
2023/02/04 02:39:13;;;;;;;26.17;6.30;;;7.70;99.90;;;;;;4928070;29;20229;-78
2023/02/04 02:41:40;;;;;;;20.27;4.90;;;7.70;99.90;;;;;;4928387;29;20218;-78
2023/02/04 02:44:09;;;;;;;21.37;4.87;;;7.70;99.90;;;;;;4928683;29;20241;-78
2023/02/04 02:46:36;;;;;;;29.43;4.90;;;7.70;99.90;;;;;;4928055;29;20202;-79
2023/02/04 02:49:03;;;;;;;30.17;5.73;;;7.80;99.90;;;;;;4928933;29;20316;-77
2023/02/04 02:51:30;;;;;;;31.70;4.90;;;7.80;99.90;;;;;;4927411;29;20242;-78
2023/02/04 02:53:58;;;;;;;30.07;4.87;;;7.90;99.90;;;;;;4928377;29;20213;-78
2023/02/04 02:56:26;;;;;;;24.47;4.97;;;7.80;99.90;;;;;;4928273;29;20214;-79
2023/02/04 02:58:53;;;;;;;27.77;5.27;;;7.90;99.90;;;;;;4928093;29;20233;-79
2023/02/04 03:01:21;;;;;;;23.53;4.63;;;7.90;99.90;;;;;;4928073;29;20226;-79
2023/02/04 03:03:49;;;;;;;25.90;5.07;;;7.80;99.90;;;;;;4927963;29;20212;-79
2023/02/04 03:06:19;;;;;;;27.13;5.00;;;7.80;99.90;;;;;;4927785;29;20212;-80
2023/02/04 03:08:48;;;;;;;22.80;4.57;;;7.80;99.90;;;;;;4928249;29;20904;-79
2023/02/04 03:11:15;;;;;;;26.07;4.97;;;7.80;99.90;;;;;;4927349;29;20212;-78
2023/02/04 03:13:43;;;;;;;17.80;4.27;;;7.80;99.90;;;;;;4927088;29;20356;-79
2023/02/04 03:16:10;;;;;;;22.87;4.83;;;7.70;99.90;;;;;;4928028;29;20229;-79
2023/02/04 03:18:38;;;;;;;21.70;4.60;;;7.70;99.90;;;;;;4927313;29;20218;-78
2023/02/04 03:21:06;;;;;;;23.87;4.87;;;7.70;99.90;;;;;;4927386;29;20206;-78
2023/02/04 03:23:34;;;;;;;20.07;4.07;;;7.70;99.90;;;;;;4927931;29;20220;-77
2023/02/04 03:26:02;;;;;;;18.40;4.60;;;7.70;99.90;;;;;;4927442;28;20205;-78
2023/02/04 03:28:31;;;;;;;23.63;5.20;;;7.70;99.90;;;;;;4936798;28;20244;-77
2023/02/04 03:30:59;;;;;;;18.57;5.40;;;7.70;99.90;;;;;;4946655;29;20233;-79
2023/02/04 03:33:30;;;;;;;15.10;3.37;;;7.70;99.90;;;;;;4938254;29;20241;-79
2023/02/04 03:35:57;;;;;;;16.83;3.53;;;7.70;99.90;;;;;;4927098;28;20585;-80
2023/02/04 03:38:24;;;;;;;12.57;3.10;;;7.60;99.90;;;;;;4927853;29;20206;-79
2023/02/04 03:40:51;;;;;;;13.90;2.90;;;7.60;99.90;;;;;;4926926;29;20198;-78
2023/02/04 03:43:18;;;;;;;13.77;3.20;;;7.60;99.90;;;;;;4927022;29;20213;-79
2023/02/04 03:45:45;;;;;;;17.10;4.20;;;7.60;99.90;;;;;;4930042;29;20976;-79
2023/02/04 03:48:13;;;;;;;18.37;4.03;;;7.60;99.90;;;;;;4946331;29;20217;-78
2023/02/04 03:50:40;;;;;;;19.97;5.17;;;7.60;99.90;;;;;;4945902;28;20282;-79
2023/02/04 03:53:07;;;;;;;23.10;4.67;;;7.60;99.90;;;;;;4935831;28;20216;-79
2023/02/04 03:55:34;;;;;;;22.47;4.50;;;7.60;99.90;;;;;;4926856;29;20209;-77
2023/02/04 03:58:01;;;;;;;22.67;4.23;;;7.60;99.90;;;;;;4927693;29;20206;-77
2023/02/04 04:00:29;;;;;;;13.93;3.50;;;7.60;99.90;;;;;;4927025;29;20249;-78
2023/02/04 04:02:56;;;;;;;16.97;4.00;;;7.60;99.90;;;;;;4943419;28;20220;-78
2023/02/04 04:05:25;;;;;;;20.13;3.57;;;7.60;99.90;;;;;;4945956;28;20276;-78
2023/02/04 04:07:52;;;;;;;11.27;3.50;;;7.50;99.90;;;;;;4945127;28;20222;-79
2023/02/04 04:10:19;;;;;;;12.50;3.57;;;7.50;99.90;;;;;;4945050;28;20960;-79
2023/02/04 04:12:46;;;;;;;11.53;3.00;;;7.50;99.90;;;;;;4945833;28;20880;-77
2023/02/04 04:15:13;;;;;;;9.87;3.03;;;7.50;99.90;;;;;;4929929;28;20590;-78
2023/02/04 04:17:39;;;;;;;15.53;3.87;;;7.50;99.90;;;;;;4926129;29;20236;-79
2023/02/04 04:20:07;;;;;;;26.67;5.63;;;7.50;99.90;;;;;;4927090;29;20214;-77
2023/02/04 04:22:35;;;;;;;24.60;4.63;;;7.50;99.90;;;;;;4928343;29;20666;-78
2023/02/04 04:25:02;;;;;;;19.97;4.00;;;7.50;99.90;;;;;;4929680;29;20206;-77
2023/02/04 04:27:29;;;;;;;19.17;4.20;;;7.50;99.90;;;;;;4928248;29;20224;-77
2023/02/04 04:29:57;;;;;;;25.07;5.87;;;7.50;99.90;;;;;;4927284;28;20684;-77
2023/02/04 04:32:24;;;;;;;24.33;4.50;;;7.50;99.90;;;;;;4928523;29;20336;-76
2023/02/04 04:34:50;;;;;;;24.00;4.73;;;7.50;99.90;;;;;;4927357;29;20205;-78
2023/02/04 04:37:17;;;;;;;12.60;4.10;;;7.50;99.90;;;;;;4928427;29;20233;-77
2023/02/04 04:39:46;;;;;;;15.23;3.77;;;7.50;99.90;;;;;;4926537;29;20212;-77
2023/02/04 04:42:13;;;;;;;28.60;4.73;;;7.50;99.90;;;;;;4946142;29;20217;-79
2023/02/04 04:44:39;;;;;;;13.87;3.00;;;7.50;99.90;;;;;;4935877;28;20213;-78
2023/02/04 04:47:06;;;;;;;15.43;3.60;;;7.50;99.90;;;;;;4926106;29;20316;-79
2023/02/04 04:49:33;;;;;;;18.70;3.97;;;7.50;99.90;;;;;;4925906;29;20205;-77
2023/02/04 04:52:00;;;;;;;12.53;3.33;;;7.50;99.90;;;;;;4926388;28;20248;-77
2023/02/04 04:54:27;;;;;;;13.83;3.37;;;7.40;99.90;;;;;;4926593;29;20237;-78
2023/02/04 04:56:55;;;;;;;13.23;3.93;;;7.40;99.90;;;;;;4927012;29;20202;-79
2023/02/04 04:59:22;;;;;;;8.20;2.70;;;7.40;99.90;;;;;;4926571;28;20221;-78
2023/02/04 05:01:49;;;;;;;7.97;2.27;;;7.30;99.90;;;;;;4926352;28;20228;-79
2023/02/04 05:04:16;;;;;;;8.97;2.80;;;7.30;99.90;;;;;;4926954;29;20221;-78
2023/02/04 05:06:43;;;;;;;16.17;3.00;;;7.30;99.90;;;;;;4925969;29;20296;-79
2023/02/04 05:09:10;;;;;;;15.47;4.10;;;7.20;99.90;;;;;;4926495;28;20541;-79
2023/02/04 05:11:37;;;;;;;11.37;3.37;;;7.20;99.90;;;;;;4925804;29;20236;-77
2023/02/04 05:14:05;;;;;;;14.83;3.47;;;7.10;99.90;;;;;;4926276;28;20206;-79
2023/02/04 05:16:32;;;;;;;13.90;3.60;;;7.10;99.90;;;;;;4925978;29;20357;-79
2023/02/04 05:18:59;;;;;;;16.20;3.53;;;7.00;99.90;;;;;;4926040;29;20277;-78
2023/02/04 05:21:26;;;;;;;15.33;4.23;;;7.00;99.90;;;;;;4926345;29;20210;-79
2023/02/04 05:23:53;;;;;;;17.10;4.30;;;7.00;99.90;;;;;;4926429;29;20297;-78
2023/02/04 05:26:20;;;;;;;12.80;3.40;;;7.00;99.90;;;;;;4924857;28;20225;-78
2023/02/04 05:28:47;;;;;;;15.30;3.60;;;6.90;99.90;;;;;;4925682;29;20239;-78
2023/02/04 05:31:15;;;;;;;10.47;3.10;;;6.90;99.90;;;;;;4925495;29;20230;-78
2023/02/04 05:33:42;;;;;;;8.37;3.30;;;6.90;99.90;;;;;;4926174;29;20317;-78
2023/02/04 05:36:09;;;;;;;7.83;3.17;;;6.90;99.90;;;;;;4930366;29;20312;-77
2023/02/04 05:38:36;;;;;;;5.90;2.20;;;6.90;99.90;;;;;;4930269;29;20220;-77
2023/02/04 05:41:03;;;;;;;5.87;2.30;;;6.90;99.90;;;;;;4929849;29;20210;-77
2023/02/04 05:43:29;;;;;;;9.67;2.90;;;6.90;99.90;;;;;;4929945;29;20213;-78
2023/02/04 05:45:56;;;;;;;9.20;2.77;;;6.90;99.90;;;;;;4930567;29;20217;-78
2023/02/04 05:48:25;;;;;;;15.13;3.60;;;6.90;99.90;;;;;;4928871;28;20409;-78
2023/02/04 05:50:51;;;;;;;13.27;4.13;;;6.90;99.90;;;;;;4930067;29;20221;-77
2023/02/04 05:53:18;;;;;;;12.00;3.30;;;6.90;99.90;;;;;;4928743;28;20712;-78
2023/02/04 05:55:45;;;;;;;17.67;3.80;;;6.90;99.90;;;;;;4928358;28;20222;-78
2023/02/04 05:58:12;;;;;;;19.50;5.00;;;6.90;99.90;;;;;;4928896;29;20285;-80
2023/02/04 06:00:39;;;;;;;18.33;4.90;;;6.90;99.90;;;;;;4930037;29;20209;-78
2023/02/04 06:03:06;;;;;;;10.70;3.90;;;6.90;99.90;;;;;;4929456;29;20621;-77
2023/02/04 06:05:34;;;;;;;13.33;3.30;;;6.90;99.90;;;;;;4929423;29;20300;-76
2023/02/04 06:08:01;;;;;;;13.00;3.50;;;6.90;99.90;;;;;;4929549;29;20916;-77
2023/02/04 06:10:28;;;;;;;9.33;2.90;;;6.90;99.90;;;;;;4929502;29;20225;-77
2023/02/04 06:12:55;;;;;;;14.80;3.60;;;6.90;99.90;;;;;;4929554;28;20296;-77
2023/02/04 06:15:22;;;;;;;13.77;3.23;;;6.90;99.90;;;;;;4928455;29;20292;-78
2023/02/04 06:17:49;;;;;;;11.73;3.60;;;6.80;99.90;;;;;;4929549;29;20315;-77
2023/02/04 06:20:16;;;;;;;10.23;3.20;;;6.80;99.90;;;;;;4929572;29;20202;-77
2023/02/04 06:22:44;;;;;;;11.93;3.63;;;6.80;99.90;;;;;;4929077;29;20212;-78
2023/02/04 06:25:11;;;;;;;12.23;3.63;;;6.80;99.90;;;;;;4929527;29;20212;-77
2023/02/04 06:27:38;;;;;;;8.03;3.13;;;6.80;99.90;;;;;;4928598;28;20980;-77
2023/02/04 06:30:05;;;;;;;10.43;3.10;;;6.80;99.90;;;;;;4928869;28;20210;-77
2023/02/04 06:32:32;;;;;;;9.93;3.07;;;6.80;99.90;;;;;;4928644;29;20313;-81
2023/02/04 06:34:59;;;;;;;12.23;3.37;;;6.80;99.90;;;;;;4928931;29;20202;-77
2023/02/04 06:37:26;;;;;;;13.40;3.43;;;6.70;99.90;;;;;;4929023;29;20230;-77
2023/02/04 06:39:56;;;;;;;10.50;3.30;;;6.70;99.90;;;;;;4929573;29;20300;-78
2023/02/04 06:42:24;;;;;;;9.23;3.07;;;6.70;99.90;;;;;;4928837;29;20771;-77
2023/02/04 06:44:51;;;;;;;9.60;3.07;;;6.70;99.90;;;;;;4928382;29;20206;-77
2023/02/04 06:47:18;;;;;;;12.73;3.37;;;6.70;99.90;;;;;;4929315;29;20218;-77
2023/02/04 06:49:45;;;;;;;12.27;3.53;;;6.70;99.90;;;;;;4928907;29;20595;-76
2023/02/04 06:52:12;;;;;;;9.67;3.40;;;6.70;99.90;;;;;;4928339;29;20225;-77
2023/02/04 06:54:38;;;;;;;7.13;2.43;;;6.70;99.90;;;;;;4928054;29;20925;-77
2023/02/04 06:57:07;;;;;;;8.13;2.60;;;6.70;99.90;;;;;;4928593;29;20210;-76
2023/02/04 06:59:34;;;;;;;14.53;3.20;;;6.70;99.90;;;;;;4929143;29;20212;-78
2023/02/04 07:02:01;;;;;;;10.93;2.83;;;6.70;99.90;;;;;;4928936;28;20210;-77
2023/02/04 07:04:28;;;;;;;5.87;2.73;;;6.70;99.90;;;;;;4928326;29;20202;-76
2023/02/04 07:06:55;;;;;;;8.97;2.50;;;6.70;99.90;;;;;;4927565;28;20218;-77
2023/02/04 07:09:22;;;;;;;10.63;2.77;;;6.70;99.90;;;;;;4928022;28;20202;-76
2023/02/04 07:11:48;;;;;;;8.10;2.67;;;6.70;99.90;;;;;;4927751;28;20747;-78
2023/02/04 07:14:17;;;;;;;9.20;2.90;;;6.70;99.90;;;;;;4928785;29;20241;-78
2023/02/04 07:16:44;;;;;;;12.50;2.80;;;6.70;99.90;;;;;;4927861;28;20242;-76
2023/02/04 07:19:11;;;;;;;11.60;3.00;;;6.70;99.90;;;;;;4928018;28;20309;-78
2023/02/04 07:21:38;;;;;;;11.07;3.00;;;6.70;99.90;;;;;;4928760;29;20861;-78
2023/02/04 07:24:05;;;;;;;18.03;3.83;;;6.80;99.90;;;;;;4928100;29;20210;-77
2023/02/04 07:26:46;;;;;;;19.83;4.17;;;6.80;99.90;;;;;;4935224;29;20208;-78
2023/02/04 07:29:32;;;;;;;17.97;3.93;;;6.80;99.90;;;;;;4930965;29;20210;-79
2023/02/04 07:31:59;;;;;;;23.13;4.57;;;6.80;99.90;;;;;;4927664;29;20538;-77
2023/02/04 07:34:26;;;;;;;17.37;4.47;;;6.90;99.90;;;;;;4926763;28;20206;-79
2023/02/04 07:36:53;;;;;;;20.47;3.83;;;6.90;99.90;;;;;;4928113;29;20521;-79
2023/02/04 07:39:20;;;;;;;20.77;4.67;;;6.90;99.90;;;;;;4927389;29;20245;-78
2023/02/04 07:41:47;;;;;;;18.90;4.10;;;7.00;99.90;;;;;;4927635;28;20229;-77
2023/02/04 07:44:13;;;;;;;16.37;3.93;;;7.00;99.90;;;;;;4946263;28;20209;-78
2023/02/04 07:46:42;;;;;;;12.27;3.30;;;7.10;99.90;;;;;;4942233;28;20296;-77
2023/02/04 07:49:09;;;;;;;16.73;5.10;;;7.10;99.90;;;;;;4928438;29;20227;-79
2023/02/04 07:51:36;;;;;;;11.03;3.07;;;7.10;99.90;;;;;;4927371;29;20232;-78
2023/02/04 07:54:03;;;;;;;14.97;3.77;;;7.10;99.90;;;;;;4891393;28;20283;-79
2023/02/04 07:56:30;;;;;;;21.83;5.33;;;7.20;99.90;;;;;;4944809;28;20296;-78
2023/02/04 07:58:57;;;;;;;14.47;3.37;;;7.20;99.90;;;;;;4956187;28;20208;-79
2023/02/04 08:01:24;;;;;;;12.53;3.17;;;7.20;99.90;;;;;;4932152;28;20214;-79
2023/02/04 08:03:52;;;;;;;21.03;4.33;;;7.20;99.90;;;;;;4949178;28;20668;-79
2023/02/04 08:06:19;;;;;;;16.83;3.70;;;7.30;99.90;;;;;;4965811;28;20232;-78
2023/02/04 08:08:46;;;;;;;14.90;3.57;;;7.30;99.90;;;;;;4964147;28;20204;-79
2023/02/04 08:11:13;;;;;;;13.53;3.73;;;7.40;99.90;;;;;;4938604;29;20257;-77
2023/02/04 08:14:14;;;;;;;14.20;3.23;;;7.40;99.90;;;;;;4853093;28;20936;-77
2023/02/04 08:16:41;;;;;;;12.57;3.83;;;7.50;99.90;;;;;;4944994;28;20324;-78
2023/02/04 08:19:09;;;;;;;11.47;3.73;;;7.50;99.90;;;;;;4944630;28;20432;-78
2023/02/04 08:21:36;;;;;;;11.00;3.27;;;7.50;99.90;;;;;;4945083;28;20212;-80
2023/02/04 08:24:03;;;;;;;17.03;4.00;;;7.60;99.90;;;;;;4942345;28;20205;-77
2023/02/04 08:26:30;;;;;;;18.20;3.80;;;7.60;99.90;;;;;;4945513;28;20205;-77
2023/02/04 08:28:56;;;;;;;15.27;4.67;;;7.60;99.90;;;;;;4944897;29;20201;-77
2023/02/04 08:31:23;;;;;;;16.40;4.57;;;7.70;99.90;;;;;;4939747;28;20835;-78
2023/02/04 08:33:50;;;;;;;18.37;5.70;;;7.70;99.90;;;;;;4938174;28;20238;-78
2023/02/04 08:36:18;;;;;;;18.20;4.97;;;7.70;99.90;;;;;;4925070;29;20212;-78
2023/02/04 08:38:45;;;;;;;22.37;4.93;;;7.80;99.90;;;;;;4924929;28;20209;-78
2023/02/04 08:41:12;;;;;;;18.07;4.23;;;7.80;99.90;;;;;;4925809;28;20644;-79
2023/02/04 08:43:39;;;;;;;25.93;5.47;;;7.80;99.90;;;;;;4924776;28;21103;-79
2023/02/04 08:46:06;;;;;;;21.70;4.57;;;7.90;99.90;;;;;;4926464;28;20360;-78
2023/02/04 08:48:33;;;;;;;34.60;7.33;;;7.90;99.90;;;;;;4926977;29;20209;-80
2023/02/04 08:51:00;;;;;;;29.50;8.07;;;7.90;99.90;;;;;;4926628;29;20778;-77
2023/02/04 08:53:28;;;;;;;24.00;5.63;;;7.90;99.90;;;;;;4926643;29;20212;-79
2023/02/04 08:55:55;;;;;;;30.23;6.37;;;7.90;99.90;;;;;;4927250;28;20213;-78
2023/02/04 08:58:22;;;;;;;18.60;4.70;;;8.00;99.90;;;;;;4926266;29;20210;-76
2023/02/04 09:00:49;;;;;;;23.77;4.97;;;8.00;99.90;;;;;;4927055;29;20924;-82
2023/02/04 09:03:15;;;;;;;18.60;5.57;;;8.10;99.90;;;;;;4926430;29;20763;-79
2023/02/04 09:05:42;;;;;;;23.97;5.57;;;8.20;99.90;;;;;;4925780;28;20209;-78
2023/02/04 09:08:09;;;;;;;25.57;5.80;;;8.20;99.90;;;;;;4925576;29;20301;-79
2023/02/04 09:10:38;;;;;;;18.97;5.13;;;8.30;99.90;;;;;;4926315;29;20205;-78
2023/02/04 09:13:05;;;;;;;23.57;6.90;;;8.40;99.90;;;;;;4926120;28;20705;-78
2023/02/04 09:15:31;;;;;;;21.73;4.80;;;8.50;99.90;;;;;;4926756;29;20211;-78
2023/02/04 09:18:03;;;;;;;28.13;6.20;;;8.60;99.90;;;;;;4925637;29;20222;-78
2023/02/04 09:20:30;;;;;;;30.00;5.97;;;8.70;99.90;;;;;;4926259;29;20289;-78
2023/02/04 09:22:57;;;;;;;21.57;4.73;;;8.80;99.90;;;;;;4926808;29;20209;-78
2023/02/04 09:25:24;;;;;;;19.37;5.93;;;8.80;99.90;;;;;;4926187;29;20206;-78
2023/02/04 09:27:52;;;;;;;19.90;5.03;;;8.80;99.90;;;;;;4926262;28;20209;-78
2023/02/04 09:30:19;;;;;;;22.67;6.23;;;8.90;99.90;;;;;;4926698;29;20210;-79
2023/02/04 09:32:46;;;;;;;26.27;5.97;;;8.80;99.90;;;;;;4925147;29;20690;-79
2023/02/04 09:35:13;;;;;;;22.10;4.93;;;8.80;99.90;;;;;;4926162;29;20213;-78
2023/02/04 09:37:40;;;;;;;24.63;5.57;;;8.90;99.90;;;;;;4926071;29;20860;-79
2023/02/04 09:40:09;;;;;;;29.23;6.23;;;8.90;99.90;;;;;;4925855;29;20205;-78
2023/02/04 09:42:36;;;;;;;23.47;6.30;;;8.90;99.90;;;;;;4925563;29;20198;-79
2023/02/04 09:45:06;;;;;;;29.90;6.23;;;9.00;99.90;;;;;;4926605;28;20213;-78
2023/02/04 09:47:32;;;;;;;26.47;6.13;;;9.00;99.90;;;;;;4925236;29;20583;-78
2023/02/04 09:49:59;;;;;;;23.83;4.70;;;9.00;99.90;;;;;;4925994;29;20610;-78
2023/02/04 09:52:28;;;;;;;22.83;5.93;;;9.10;99.90;;;;;;4925989;29;20693;-78
2023/02/04 09:54:55;;;;;;;31.73;6.10;;;9.10;99.90;;;;;;4925659;29;20209;-78
2023/02/04 09:57:22;;;;;;;24.53;5.67;;;9.10;99.90;;;;;;4926219;29;20214;-79
2023/02/04 09:59:51;;;;;;;27.00;6.07;;;9.10;99.90;;;;;;4925931;29;20232;-78
2023/02/04 10:02:25;;;;;;;24.90;4.30;;;9.10;99.90;;;;;;4925788;29;20212;-78
2023/02/04 10:04:56;;;;;;;18.20;5.80;;;9.10;99.90;;;;;;4926013;29;20301;-78
2023/02/04 10:07:25;;;;;;;26.23;5.30;;;9.20;99.90;;;;;;4925681;29;20218;-79
2023/02/04 10:09:53;;;;;;;20.20;4.40;;;9.20;99.90;;;;;;4926706;29;20591;-83
2023/02/04 10:12:20;;;;;;;25.03;5.80;;;9.20;99.90;;;;;;4927180;29;20234;-80
2023/02/04 10:14:47;;;;;;;30.20;5.97;;;9.30;99.90;;;;;;4941965;29;20637;-80
2023/02/04 10:17:18;;;;;;;17.33;4.30;;;9.30;99.90;;;;;;4939503;28;20882;-79
2023/02/04 10:19:47;;;;;;;21.13;5.10;;;9.30;99.90;;;;;;4927509;29;20208;-79
2023/02/04 10:22:18;;;;;;;22.17;4.77;;;9.40;99.90;;;;;;4930021;29;20198;-80
2023/02/04 10:24:45;;;;;;;26.07;5.80;;;9.40;99.90;;;;;;4929693;29;20694;-79
2023/02/04 10:27:15;;;;;;;28.27;5.50;;;9.50;99.90;;;;;;4929868;29;20206;-78
2023/02/04 10:29:42;;;;;;;24.13;5.07;;;9.40;99.90;;;;;;4928588;29;20206;-79
2023/02/04 10:32:27;;;;;;;24.90;5.27;;;9.50;99.90;;;;;;4929587;29;20863;-78
2023/02/04 10:34:59;;;;;;;23.73;6.80;;;9.50;99.90;;;;;;4928017;29;20513;-79
2023/02/04 10:37:27;;;;;;;23.77;5.07;;;9.50;99.90;;;;;;4928195;29;20294;-80
2023/02/04 10:39:54;;;;;;;19.83;4.27;;;9.50;99.90;;;;;;4942232;29;20260;-79
2023/02/04 10:42:22;;;;;;;17.00;4.27;;;9.50;99.90;;;;;;4946753;28;20234;-79
2023/02/04 10:44:49;;;;;;;16.00;3.50;;;9.60;99.90;;;;;;4928156;29;20232;-78
2023/02/04 10:47:18;;;;;;;24.20;5.27;;;9.60;99.90;;;;;;4929022;29;20320;-78
2023/02/04 10:49:53;;;;;;;18.83;5.23;;;9.60;99.90;;;;;;4937383;29;20264;-78
2023/02/04 10:52:24;;;;;;;16.47;3.57;;;9.60;99.90;;;;;;4946405;29;20232;-78
2023/02/04 10:54:51;;;;;;;15.57;4.43;;;9.60;99.90;;;;;;4944861;29;20213;-78
2023/02/04 10:57:20;;;;;;;15.87;4.20;;;9.60;99.90;;;;;;4947993;28;20320;-79
2023/02/04 10:59:49;;;;;;;17.77;4.30;;;9.60;99.90;;;;;;4934487;29;20213;-79
2023/02/04 11:02:42;;;;;;;12.90;4.47;;;9.50;99.90;;;;;;4946750;29;20239;-78
2023/02/04 11:05:13;;;;;;;15.47;4.67;;;9.50;99.90;;;;;;4944129;28;20243;-79
2023/02/04 11:07:42;;;;;;;12.70;4.00;;;9.60;99.90;;;;;;4947867;28;20189;-79
2023/02/04 11:10:14;;;;;;;16.13;3.63;;;9.60;99.90;;;;;;4931143;28;20209;-79
2023/02/04 11:12:43;;;;;;;16.33;4.67;;;9.60;99.90;;;;;;4927596;28;20256;-79
2023/02/04 11:15:38;;;;;;;18.60;5.77;;;9.60;99.90;;;;;;4928334;28;20233;-78
2023/02/04 11:18:07;;;;;;;18.90;5.10;;;9.60;99.90;;;;;;4927859;29;20544;-79
2023/02/04 11:20:38;;;;;;;24.63;6.13;;;9.50;99.90;;;;;;4928087;28;20213;-78
2023/02/04 11:23:35;;;;;;;13.27;4.50;;;9.50;99.90;;;;;;4928819;29;20285;-80
2023/02/04 11:26:06;;;;;;;18.40;5.53;;;9.60;99.90;;;;;;4926704;29;20908;-79
2023/02/04 11:28:50;;;;;;;20.43;5.43;;;9.60;99.90;;;;;;4926984;29;20595;-78
2023/02/04 11:31:29;;;;;;;19.87;5.67;;;9.60;99.90;;;;;;4927160;28;20615;-78
2023/02/04 11:34:10;;;;;;;17.23;5.23;;;9.60;99.90;;;;;;4929285;28;20247;-80
2023/02/04 11:36:51;;;;;;;20.33;6.00;;;9.60;99.90;;;;;;4928678;29;20305;-79
2023/02/04 11:39:19;;;;;;;18.50;5.57;;;9.60;99.90;;;;;;4928368;29;20190;-79
2023/02/04 11:41:47;;;;;;;15.93;5.33;;;9.60;99.90;;;;;;4927631;29;20543;-79
2023/02/04 11:44:15;;;;;;;18.20;6.37;;;9.50;99.90;;;;;;4927973;29;20220;-81
2023/02/04 11:46:42;;;;;;;11.20;4.37;;;9.50;99.90;;;;;;4934967;29;20210;-81
2023/02/04 11:49:18;;;;;;;22.10;6.60;;;9.50;99.90;;;;;;4928986;29;20297;-81
2023/02/04 11:51:45;;;;;;;16.50;4.83;;;9.50;99.90;;;;;;4928504;29;20201;-79
2023/02/04 11:54:12;;;;;;;15.13;5.97;;;9.50;99.90;;;;;;4928967;29;20206;-80
2023/02/04 11:56:41;;;;;;;20.73;6.37;;;9.50;99.90;;;;;;4929816;29;20210;-80
2023/02/04 11:59:11;;;;;;;19.33;6.70;;;9.50;99.90;;;;;;4928722;29;20516;-80
2023/02/04 12:01:40;;;;;;;17.33;6.77;;;9.40;99.90;;;;;;4928761;29;20300;-81
2023/02/04 12:04:21;;;;;;;21.83;6.80;;;9.40;99.90;;;;;;4929564;29;20309;-80
2023/02/04 12:06:59;;;;;;;17.70;6.10;;;9.40;99.90;;;;;;4928563;29;20618;-80
2023/02/04 12:09:28;;;;;;;19.60;5.77;;;9.50;99.90;;;;;;4928582;28;20526;-81
2023/02/04 12:11:59;;;;;;;24.97;8.20;;;9.50;99.90;;;;;;4928826;28;20786;-80
2023/02/04 12:14:31;;;;;;;26.60;9.77;;;9.50;99.90;;;;;;4927935;29;20212;-80
2023/02/04 12:16:58;;;;;;;14.67;6.40;;;9.50;99.90;;;;;;4929098;29;20236;-79
2023/02/04 12:19:25;;;;;;;14.87;6.07;;;9.60;99.90;;;;;;4928955;29;20202;-80
2023/02/04 12:21:51;;;;;;;17.00;6.27;;;9.60;99.90;;;;;;4926336;29;20210;-81
2023/02/04 12:24:18;;;;;;;12.60;5.57;;;9.60;99.90;;;;;;4926680;29;20329;-79
2023/02/04 12:26:45;;;;;;;28.80;9.27;;;9.60;99.90;;;;;;4927024;29;20212;-78
2023/02/04 12:29:13;;;;;;;26.23;7.67;;;9.60;99.90;;;;;;4927350;28;20206;-79
2023/02/04 12:31:40;;;;;;;13.63;5.50;;;9.60;99.90;;;;;;4927143;28;20324;-79
2023/02/04 12:34:07;;;;;;;19.30;6.13;;;9.60;99.90;;;;;;4928289;29;20577;-79
2023/02/04 12:36:34;;;;;;;13.90;5.30;;;9.60;99.90;;;;;;4927241;29;20210;-79
2023/02/04 12:39:01;;;;;;;9.87;2.80;;;9.60;99.90;;;;;;4934130;29;20209;-78
2023/02/04 12:41:28;;;;;;;10.80;2.93;;;9.60;99.90;;;;;;4946578;28;20575;-79
2023/02/04 12:43:55;;;;;;;12.20;2.83;;;9.60;99.90;;;;;;4946979;28;20205;-78
2023/02/04 12:46:24;;;;;;;13.13;2.77;;;9.60;99.90;;;;;;4940244;28;20216;-78
2023/02/04 12:48:50;;;;;;;10.23;3.27;;;9.50;99.90;;;;;;4926246;29;20968;-79
2023/02/04 12:51:19;;;;;;;11.03;3.47;;;9.50;99.90;;;;;;4927057;29;20305;-80
2023/02/04 12:53:47;;;;;;;15.43;2.93;;;9.50;99.90;;;;;;4927047;28;20226;-78